sensor_id;sensor_type;location;lat;lon;timestamp;P1;durP1;ratioP1;P2;durP2;ratioP2
46897;SDS011;32646;50.958;6.258;2023-02-28T00:00:23;6.32;;;3.50;;
46897;SDS011;32646;50.958;6.258;2023-02-28T00:02:50;6.15;;;3.08;;
46897;SDS011;32646;50.958;6.258;2023-02-28T00:05:18;7.57;;;3.97;;
46897;SDS011;32646;50.958;6.258;2023-02-28T00:07:46;7.25;;;3.70;;
46897;SDS011;32646;50.958;6.258;2023-02-28T00:10:15;5.70;;;2.92;;
46897;SDS011;32646;50.958;6.258;2023-02-28T00:12:43;5.25;;;2.90;;
46897;SDS011;32646;50.958;6.258;2023-02-28T00:15:10;5.00;;;2.80;;
46897;SDS011;32646;50.958;6.258;2023-02-28T00:17:37;5.28;;;2.72;;
46897;SDS011;32646;50.958;6.258;2023-02-28T00:20:04;5.30;;;2.67;;
46897;SDS011;32646;50.958;6.258;2023-02-28T00:22:32;6.70;;;3.45;;
46897;SDS011;32646;50.958;6.258;2023-02-28T00:24:58;4.95;;;2.63;;
46897;SDS011;32646;50.958;6.258;2023-02-28T00:27:25;6.53;;;3.50;;
46897;SDS011;32646;50.958;6.258;2023-02-28T00:29:52;9.23;;;2.97;;
46897;SDS011;32646;50.958;6.258;2023-02-28T00:32:18;5.85;;;2.85;;
46897;SDS011;32646;50.958;6.258;2023-02-28T00:34:45;6.90;;;2.80;;
46897;SDS011;32646;50.958;6.258;2023-02-28T00:37:12;6.07;;;3.10;;
46897;SDS011;32646;50.958;6.258;2023-02-28T00:39:38;7.63;;;2.78;;
46897;SDS011;32646;50.958;6.258;2023-02-28T00:42:05;5.15;;;2.80;;
46897;SDS011;32646;50.958;6.258;2023-02-28T00:44:33;8.10;;;3.65;;
46897;SDS011;32646;50.958;6.258;2023-02-28T00:47:00;8.40;;;3.47;;
46897;SDS011;32646;50.958;6.258;2023-02-28T00:49:26;6.72;;;3.33;;
46897;SDS011;32646;50.958;6.258;2023-02-28T00:51:55;6.32;;;3.15;;
46897;SDS011;32646;50.958;6.258;2023-02-28T00:54:22;7.85;;;2.83;;
46897;SDS011;32646;50.958;6.258;2023-02-28T00:56:49;5.88;;;2.97;;
46897;SDS011;32646;50.958;6.258;2023-02-28T00:59:16;8.45;;;3.47;;
46897;SDS011;32646;50.958;6.258;2023-02-28T01:01:44;8.38;;;3.45;;
46897;SDS011;32646;50.958;6.258;2023-02-28T01:04:12;9.00;;;2.92;;
46897;SDS011;32646;50.958;6.258;2023-02-28T01:06:39;7.20;;;3.17;;
46897;SDS011;32646;50.958;6.258;2023-02-28T01:09:06;8.10;;;3.78;;
46897;SDS011;32646;50.958;6.258;2023-02-28T01:11:34;6.35;;;2.65;;
46897;SDS011;32646;50.958;6.258;2023-02-28T01:14:01;6.03;;;3.08;;
46897;SDS011;32646;50.958;6.258;2023-02-28T01:16:28;6.50;;;3.17;;
46897;SDS011;32646;50.958;6.258;2023-02-28T01:18:54;6.20;;;2.88;;
46897;SDS011;32646;50.958;6.258;2023-02-28T01:21:21;7.10;;;3.25;;
46897;SDS011;32646;50.958;6.258;2023-02-28T01:23:49;5.32;;;2.80;;
46897;SDS011;32646;50.958;6.258;2023-02-28T01:26:20;7.88;;;3.30;;
46897;SDS011;32646;50.958;6.258;2023-02-28T01:28:48;6.32;;;2.88;;
46897;SDS011;32646;50.958;6.258;2023-02-28T01:31:16;5.30;;;2.70;;
46897;SDS011;32646;50.958;6.258;2023-02-28T01:33:43;10.20;;;3.00;;
46897;SDS011;32646;50.958;6.258;2023-02-28T01:38:42;6.07;;;2.47;;
46897;SDS011;32646;50.958;6.258;2023-02-28T01:41:10;5.50;;;2.53;;
46897;SDS011;32646;50.958;6.258;2023-02-28T01:46:10;7.47;;;2.72;;
46897;SDS011;32646;50.958;6.258;2023-02-28T01:48:42;5.75;;;2.70;;
46897;SDS011;32646;50.958;6.258;2023-02-28T01:51:18;6.32;;;2.47;;
46897;SDS011;32646;50.958;6.258;2023-02-28T01:53:49;5.10;;;2.53;;
46897;SDS011;32646;50.958;6.258;2023-02-28T01:56:27;6.18;;;3.13;;
46897;SDS011;32646;50.958;6.258;2023-02-28T01:58:58;4.93;;;2.80;;
46897;SDS011;32646;50.958;6.258;2023-02-28T02:01:25;4.47;;;2.33;;
46897;SDS011;32646;50.958;6.258;2023-02-28T02:03:55;9.10;;;2.97;;
46897;SDS011;32646;50.958;6.258;2023-02-28T02:06:25;6.38;;;3.30;;
46897;SDS011;32646;50.958;6.258;2023-02-28T02:08:56;5.90;;;2.55;;
46897;SDS011;32646;50.958;6.258;2023-02-28T02:11:23;10.52;;;3.53;;
46897;SDS011;32646;50.958;6.258;2023-02-28T02:14:08;5.45;;;2.80;;
46897;SDS011;32646;50.958;6.258;2023-02-28T02:31:13;4.68;;;2.42;;
46897;SDS011;32646;50.958;6.258;2023-02-28T02:39:31;7.72;;;3.05;;
46897;SDS011;32646;50.958;6.258;2023-02-28T02:42:19;4.40;;;2.17;;
46897;SDS011;32646;50.958;6.258;2023-02-28T02:45:00;5.43;;;2.38;;
46897;SDS011;32646;50.958;6.258;2023-02-28T02:47:32;6.38;;;3.92;;
46897;SDS011;32646;50.958;6.258;2023-02-28T02:50:01;5.50;;;2.28;;
46897;SDS011;32646;50.958;6.258;2023-02-28T02:52:39;4.30;;;2.17;;
46897;SDS011;32646;50.958;6.258;2023-02-28T02:55:11;5.05;;;2.20;;
46897;SDS011;32646;50.958;6.258;2023-02-28T02:57:44;5.72;;;2.10;;
46897;SDS011;32646;50.958;6.258;2023-02-28T03:00:18;4.20;;;2.38;;
46897;SDS011;32646;50.958;6.258;2023-02-28T03:02:48;4.85;;;2.33;;
46897;SDS011;32646;50.958;6.258;2023-02-28T03:05:25;5.57;;;2.58;;
46897;SDS011;32646;50.958;6.258;2023-02-28T03:07:56;4.88;;;2.53;;
46897;SDS011;32646;50.958;6.258;2023-02-28T03:10:37;6.30;;;2.65;;
46897;SDS011;32646;50.958;6.258;2023-02-28T03:13:18;9.02;;;2.55;;
46897;SDS011;32646;50.958;6.258;2023-02-28T03:16:11;4.68;;;1.90;;
46897;SDS011;32646;50.958;6.258;2023-02-28T03:21:38;6.55;;;3.35;;
46897;SDS011;32646;50.958;6.258;2023-02-28T03:24:16;5.75;;;2.50;;
46897;SDS011;32646;50.958;6.258;2023-02-28T03:26:52;9.32;;;2.90;;
46897;SDS011;32646;50.958;6.258;2023-02-28T03:29:27;5.63;;;2.17;;
46897;SDS011;32646;50.958;6.258;2023-02-28T03:34:41;6.15;;;3.03;;
46897;SDS011;32646;50.958;6.258;2023-02-28T03:37:15;5.97;;;2.60;;
46897;SDS011;32646;50.958;6.258;2023-02-28T03:39:54;10.63;;;3.13;;
46897;SDS011;32646;50.958;6.258;2023-02-28T03:42:25;4.00;;;2.17;;
46897;SDS011;32646;50.958;6.258;2023-02-28T03:44:59;5.75;;;3.33;;
46897;SDS011;32646;50.958;6.258;2023-02-28T03:47:32;5.10;;;2.65;;
46897;SDS011;32646;50.958;6.258;2023-02-28T03:50:05;7.78;;;2.78;;
46897;SDS011;32646;50.958;6.258;2023-02-28T03:52:38;7.07;;;2.80;;
46897;SDS011;32646;50.958;6.258;2023-02-28T03:55:13;7.15;;;3.28;;
46897;SDS011;32646;50.958;6.258;2023-02-28T04:00:26;5.53;;;2.85;;
46897;SDS011;32646;50.958;6.258;2023-02-28T04:02:57;6.13;;;3.17;;
46897;SDS011;32646;50.958;6.258;2023-02-28T04:05:24;6.97;;;2.45;;
46897;SDS011;32646;50.958;6.258;2023-02-28T04:07:51;6.28;;;3.17;;
46897;SDS011;32646;50.958;6.258;2023-02-28T04:10:18;5.50;;;3.05;;
46897;SDS011;32646;50.958;6.258;2023-02-28T04:12:44;7.32;;;2.88;;
46897;SDS011;32646;50.958;6.258;2023-02-28T04:15:11;4.80;;;2.25;;
46897;SDS011;32646;50.958;6.258;2023-02-28T04:17:37;5.45;;;2.67;;
46897;SDS011;32646;50.958;6.258;2023-02-28T04:20:04;6.35;;;2.42;;
46897;SDS011;32646;50.958;6.258;2023-02-28T04:22:31;7.93;;;2.80;;
46897;SDS011;32646;50.958;6.258;2023-02-28T04:24:58;5.85;;;2.72;;
46897;SDS011;32646;50.958;6.258;2023-02-28T04:27:24;7.80;;;3.17;;
46897;SDS011;32646;50.958;6.258;2023-02-28T04:29:51;7.47;;;3.55;;
46897;SDS011;32646;50.958;6.258;2023-02-28T04:32:17;6.30;;;3.08;;
46897;SDS011;32646;50.958;6.258;2023-02-28T04:34:44;6.90;;;2.85;;
46897;SDS011;32646;50.958;6.258;2023-02-28T04:37:10;6.60;;;3.40;;
46897;SDS011;32646;50.958;6.258;2023-02-28T04:39:39;5.32;;;2.88;;
46897;SDS011;32646;50.958;6.258;2023-02-28T04:42:07;7.88;;;3.60;;
46897;SDS011;32646;50.958;6.258;2023-02-28T04:44:35;5.95;;;3.15;;
46897;SDS011;32646;50.958;6.258;2023-02-28T04:47:02;9.27;;;3.28;;
46897;SDS011;32646;50.958;6.258;2023-02-28T04:49:28;5.47;;;3.40;;
46897;SDS011;32646;50.958;6.258;2023-02-28T04:51:55;6.30;;;3.85;;
46897;SDS011;32646;50.958;6.258;2023-02-28T04:54:21;6.88;;;3.72;;
46897;SDS011;32646;50.958;6.258;2023-02-28T04:56:48;5.90;;;3.38;;
46897;SDS011;32646;50.958;6.258;2023-02-28T04:59:14;8.20;;;4.07;;
46897;SDS011;32646;50.958;6.258;2023-02-28T05:01:44;5.93;;;3.45;;
46897;SDS011;32646;50.958;6.258;2023-02-28T05:04:12;9.10;;;4.40;;
46897;SDS011;32646;50.958;6.258;2023-02-28T05:06:39;6.32;;;4.10;;
46897;SDS011;32646;50.958;6.258;2023-02-28T05:09:05;6.03;;;3.28;;
46897;SDS011;32646;50.958;6.258;2023-02-28T05:11:32;7.25;;;3.22;;
46897;SDS011;32646;50.958;6.258;2023-02-28T05:14:00;7.43;;;4.05;;
46897;SDS011;32646;50.958;6.258;2023-02-28T05:16:31;7.20;;;3.65;;
46897;SDS011;32646;50.958;6.258;2023-02-28T05:18:58;9.98;;;4.68;;
46897;SDS011;32646;50.958;6.258;2023-02-28T05:21:29;7.15;;;3.95;;
46897;SDS011;32646;50.958;6.258;2023-02-28T05:24:04;7.95;;;4.00;;
46897;SDS011;32646;50.958;6.258;2023-02-28T05:26:41;7.45;;;3.85;;
46897;SDS011;32646;50.958;6.258;2023-02-28T05:29:08;11.07;;;4.35;;
46897;SDS011;32646;50.958;6.258;2023-02-28T05:31:36;10.80;;;4.88;;
46897;SDS011;32646;50.958;6.258;2023-02-28T05:34:03;6.95;;;4.10;;
46897;SDS011;32646;50.958;6.258;2023-02-28T05:36:29;7.72;;;4.30;;
46897;SDS011;32646;50.958;6.258;2023-02-28T05:38:56;8.15;;;4.05;;
46897;SDS011;32646;50.958;6.258;2023-02-28T05:41:23;7.32;;;3.50;;
46897;SDS011;32646;50.958;6.258;2023-02-28T05:43:49;8.60;;;4.88;;
46897;SDS011;32646;50.958;6.258;2023-02-28T05:46:16;10.25;;;5.15;;
46897;SDS011;32646;50.958;6.258;2023-02-28T05:48:45;9.48;;;3.97;;
46897;SDS011;32646;50.958;6.258;2023-02-28T05:51:13;9.20;;;4.38;;
46897;SDS011;32646;50.958;6.258;2023-02-28T05:53:39;7.65;;;4.53;;
46897;SDS011;32646;50.958;6.258;2023-02-28T05:56:06;11.25;;;4.60;;
46897;SDS011;32646;50.958;6.258;2023-02-28T05:58:32;8.48;;;4.68;;
46897;SDS011;32646;50.958;6.258;2023-02-28T06:00:59;6.80;;;3.95;;
46897;SDS011;32646;50.958;6.258;2023-02-28T06:03:27;8.95;;;3.75;;
46897;SDS011;32646;50.958;6.258;2023-02-28T06:05:53;8.23;;;4.80;;
46897;SDS011;32646;50.958;6.258;2023-02-28T06:08:20;8.40;;;4.13;;
46897;SDS011;32646;50.958;6.258;2023-02-28T06:10:46;10.13;;;5.28;;
46897;SDS011;32646;50.958;6.258;2023-02-28T06:13:13;6.38;;;3.35;;
46897;SDS011;32646;50.958;6.258;2023-02-28T06:15:40;10.27;;;4.40;;
46897;SDS011;32646;50.958;6.258;2023-02-28T06:18:06;9.27;;;3.95;;
46897;SDS011;32646;50.958;6.258;2023-02-28T06:20:33;9.60;;;4.50;;
46897;SDS011;32646;50.958;6.258;2023-02-28T06:22:59;7.60;;;4.38;;
46897;SDS011;32646;50.958;6.258;2023-02-28T06:25:26;12.38;;;4.95;;
46897;SDS011;32646;50.958;6.258;2023-02-28T06:27:54;7.20;;;3.08;;
46897;SDS011;32646;50.958;6.258;2023-02-28T06:30:21;10.02;;;3.58;;
46897;SDS011;32646;50.958;6.258;2023-02-28T06:32:48;5.85;;;3.47;;
46897;SDS011;32646;50.958;6.258;2023-02-28T06:35:14;6.18;;;3.17;;
46897;SDS011;32646;50.958;6.258;2023-02-28T06:37:41;8.77;;;3.60;;
46897;SDS011;32646;50.958;6.258;2023-02-28T06:40:08;12.45;;;3.40;;
46897;SDS011;32646;50.958;6.258;2023-02-28T06:42:35;6.85;;;3.78;;
46897;SDS011;32646;50.958;6.258;2023-02-28T06:45:02;6.30;;;3.60;;
46897;SDS011;32646;50.958;6.258;2023-02-28T06:47:30;5.57;;;3.40;;
46897;SDS011;32646;50.958;6.258;2023-02-28T06:49:57;6.45;;;3.60;;
46897;SDS011;32646;50.958;6.258;2023-02-28T06:52:23;6.50;;;3.30;;
46897;SDS011;32646;50.958;6.258;2023-02-28T06:54:50;5.43;;;2.83;;
46897;SDS011;32646;50.958;6.258;2023-02-28T06:57:16;8.77;;;4.00;;
46897;SDS011;32646;50.958;6.258;2023-02-28T06:59:43;9.95;;;3.38;;
46897;SDS011;32646;50.958;6.258;2023-02-28T07:02:09;8.80;;;4.25;;
46897;SDS011;32646;50.958;6.258;2023-02-28T07:04:36;7.82;;;3.70;;
46897;SDS011;32646;50.958;6.258;2023-02-28T07:07:03;6.20;;;3.58;;
46897;SDS011;32646;50.958;6.258;2023-02-28T07:09:29;4.55;;;2.78;;
46897;SDS011;32646;50.958;6.258;2023-02-28T07:11:56;5.32;;;3.00;;
46897;SDS011;32646;50.958;6.258;2023-02-28T07:14:22;7.25;;;3.03;;
46897;SDS011;32646;50.958;6.258;2023-02-28T07:16:49;8.98;;;3.78;;
46897;SDS011;32646;50.958;6.258;2023-02-28T07:19:16;8.18;;;3.85;;
46897;SDS011;32646;50.958;6.258;2023-02-28T07:21:42;7.00;;;3.20;;
46897;SDS011;32646;50.958;6.258;2023-02-28T07:24:09;5.70;;;4.00;;
46897;SDS011;32646;50.958;6.258;2023-02-28T07:26:35;6.10;;;3.83;;
46897;SDS011;32646;50.958;6.258;2023-02-28T07:29:02;5.95;;;3.30;;
46897;SDS011;32646;50.958;6.258;2023-02-28T07:31:28;6.68;;;2.88;;
46897;SDS011;32646;50.958;6.258;2023-02-28T07:33:55;6.57;;;3.05;;
46897;SDS011;32646;50.958;6.258;2023-02-28T07:36:22;6.45;;;3.28;;
46897;SDS011;32646;50.958;6.258;2023-02-28T07:38:48;6.75;;;2.72;;
46897;SDS011;32646;50.958;6.258;2023-02-28T07:41:16;6.30;;;2.88;;
46897;SDS011;32646;50.958;6.258;2023-02-28T07:43:44;7.10;;;3.10;;
46897;SDS011;32646;50.958;6.258;2023-02-28T07:46:12;6.10;;;3.22;;
46897;SDS011;32646;50.958;6.258;2023-02-28T07:48:41;6.85;;;3.30;;
46897;SDS011;32646;50.958;6.258;2023-02-28T07:51:08;7.97;;;3.33;;
46897;SDS011;32646;50.958;6.258;2023-02-28T07:53:34;6.40;;;3.10;;
46897;SDS011;32646;50.958;6.258;2023-02-28T07:56:01;6.40;;;3.55;;
46897;SDS011;32646;50.958;6.258;2023-02-28T07:58:30;6.22;;;3.08;;
46897;SDS011;32646;50.958;6.258;2023-02-28T08:00:56;6.70;;;3.30;;
46897;SDS011;32646;50.958;6.258;2023-02-28T08:03:23;7.32;;;3.40;;
46897;SDS011;32646;50.958;6.258;2023-02-28T08:05:50;8.82;;;4.13;;
46897;SDS011;32646;50.958;6.258;2023-02-28T08:08:17;7.80;;;4.00;;
46897;SDS011;32646;50.958;6.258;2023-02-28T08:10:43;5.55;;;3.05;;
46897;SDS011;32646;50.958;6.258;2023-02-28T08:13:10;5.38;;;2.85;;
46897;SDS011;32646;50.958;6.258;2023-02-28T08:15:36;9.10;;;3.55;;
46897;SDS011;32646;50.958;6.258;2023-02-28T08:18:03;5.97;;;3.20;;
46897;SDS011;32646;50.958;6.258;2023-02-28T08:20:30;6.40;;;3.63;;
46897;SDS011;32646;50.958;6.258;2023-02-28T08:22:56;6.82;;;2.90;;
46897;SDS011;32646;50.958;6.258;2023-02-28T08:25:23;6.47;;;2.60;;
46897;SDS011;32646;50.958;6.258;2023-02-28T08:27:50;10.02;;;3.22;;
46897;SDS011;32646;50.958;6.258;2023-02-28T08:30:18;5.93;;;2.97;;
46897;SDS011;32646;50.958;6.258;2023-02-28T08:32:45;10.63;;;5.15;;
46897;SDS011;32646;50.958;6.258;2023-02-28T08:35:11;14.48;;;5.68;;
46897;SDS011;32646;50.958;6.258;2023-02-28T08:37:38;8.82;;;4.10;;
46897;SDS011;32646;50.958;6.258;2023-02-28T08:40:04;5.47;;;2.97;;
46897;SDS011;32646;50.958;6.258;2023-02-28T08:42:32;6.55;;;2.95;;
46897;SDS011;32646;50.958;6.258;2023-02-28T08:44:59;5.13;;;2.90;;
46897;SDS011;32646;50.958;6.258;2023-02-28T08:47:25;6.85;;;2.90;;
46897;SDS011;32646;50.958;6.258;2023-02-28T08:49:52;5.38;;;2.95;;
46897;SDS011;32646;50.958;6.258;2023-02-28T08:52:18;6.30;;;2.47;;
46897;SDS011;32646;50.958;6.258;2023-02-28T08:54:45;6.07;;;3.28;;
46897;SDS011;32646;50.958;6.258;2023-02-28T08:57:11;5.88;;;2.90;;
46897;SDS011;32646;50.958;6.258;2023-02-28T08:59:38;4.93;;;2.40;;
46897;SDS011;32646;50.958;6.258;2023-02-28T09:02:04;4.22;;;2.20;;
46897;SDS011;32646;50.958;6.258;2023-02-28T09:04:31;6.45;;;2.33;;
46897;SDS011;32646;50.958;6.258;2023-02-28T09:06:59;4.63;;;2.00;;
46897;SDS011;32646;50.958;6.258;2023-02-28T09:09:25;4.10;;;2.30;;
46897;SDS011;32646;50.958;6.258;2023-02-28T09:11:52;4.93;;;2.30;;
46897;SDS011;32646;50.958;6.258;2023-02-28T09:14:21;5.28;;;2.20;;
46897;SDS011;32646;50.958;6.258;2023-02-28T09:16:47;3.80;;;2.10;;
46897;SDS011;32646;50.958;6.258;2023-02-28T09:19:14;4.22;;;1.85;;
46897;SDS011;32646;50.958;6.258;2023-02-28T09:21:41;3.75;;;1.70;;
46897;SDS011;32646;50.958;6.258;2023-02-28T09:24:07;4.03;;;2.00;;
46897;SDS011;32646;50.958;6.258;2023-02-28T09:26:34;4.45;;;1.98;;
46897;SDS011;32646;50.958;6.258;2023-02-28T09:29:16;4.32;;;1.98;;
46897;SDS011;32646;50.958;6.258;2023-02-28T09:31:43;3.92;;;1.70;;
46897;SDS011;32646;50.958;6.258;2023-02-28T09:34:10;3.67;;;1.52;;
46897;SDS011;32646;50.958;6.258;2023-02-28T09:36:36;3.47;;;1.50;;
46897;SDS011;32646;50.958;6.258;2023-02-28T09:39:11;5.20;;;1.85;;
46897;SDS011;32646;50.958;6.258;2023-02-28T09:41:39;4.05;;;1.80;;
46897;SDS011;32646;50.958;6.258;2023-02-28T09:44:09;4.22;;;1.50;;
46897;SDS011;32646;50.958;6.258;2023-02-28T09:46:42;4.43;;;1.70;;
46897;SDS011;32646;50.958;6.258;2023-02-28T09:49:19;3.42;;;1.73;;
46897;SDS011;32646;50.958;6.258;2023-02-28T09:52:04;3.63;;;1.75;;
46897;SDS011;32646;50.958;6.258;2023-02-28T09:54:55;3.30;;;1.50;;
46897;SDS011;32646;50.958;6.258;2023-02-28T09:57:29;5.40;;;1.42;;
46897;SDS011;32646;50.958;6.258;2023-02-28T10:00:07;3.85;;;1.20;;
46897;SDS011;32646;50.958;6.258;2023-02-28T10:05:29;3.70;;;1.38;;
46897;SDS011;32646;50.958;6.258;2023-02-28T10:10:43;4.45;;;1.52;;
46897;SDS011;32646;50.958;6.258;2023-02-28T10:13:31;2.88;;;1.38;;
46897;SDS011;32646;50.958;6.258;2023-02-28T10:16:13;3.30;;;1.20;;
46897;SDS011;32646;50.958;6.258;2023-02-28T10:19:02;3.10;;;1.40;;
46897;SDS011;32646;50.958;6.258;2023-02-28T10:24:16;3.17;;;1.40;;
46897;SDS011;32646;50.958;6.258;2023-02-28T10:26:49;3.72;;;1.42;;
46897;SDS011;32646;50.958;6.258;2023-02-28T10:29:18;3.55;;;1.30;;
46897;SDS011;32646;50.958;6.258;2023-02-28T10:31:44;3.08;;;1.60;;
46897;SDS011;32646;50.958;6.258;2023-02-28T10:34:12;3.10;;;1.25;;
46897;SDS011;32646;50.958;6.258;2023-02-28T10:36:39;3.13;;;1.40;;
46897;SDS011;32646;50.958;6.258;2023-02-28T10:42:21;3.03;;;1.38;;
46897;SDS011;32646;50.958;6.258;2023-02-28T10:45:04;3.72;;;1.52;;
46897;SDS011;32646;50.958;6.258;2023-02-28T10:47:33;5.88;;;1.55;;
46897;SDS011;32646;50.958;6.258;2023-02-28T10:50:03;3.55;;;1.60;;
46897;SDS011;32646;50.958;6.258;2023-02-28T10:52:37;4.03;;;1.90;;
46897;SDS011;32646;50.958;6.258;2023-02-28T10:55:18;5.05;;;1.80;;
46897;SDS011;32646;50.958;6.258;2023-02-28T10:57:49;4.10;;;1.75;;
46897;SDS011;32646;50.958;6.258;2023-02-28T11:00:20;3.00;;;1.67;;
46897;SDS011;32646;50.958;6.258;2023-02-28T11:02:49;3.88;;;1.95;;
46897;SDS011;32646;50.958;6.258;2023-02-28T11:07:58;4.47;;;1.98;;
46897;SDS011;32646;50.958;6.258;2023-02-28T11:10:56;4.00;;;2.13;;
46897;SDS011;32646;50.958;6.258;2023-02-28T11:13:34;4.10;;;1.95;;
46897;SDS011;32646;50.958;6.258;2023-02-28T11:16:03;4.25;;;2.10;;
46897;SDS011;32646;50.958;6.258;2023-02-28T11:18:36;4.68;;;2.40;;
46897;SDS011;32646;50.958;6.258;2023-02-28T11:23:49;4.85;;;2.03;;
46897;SDS011;32646;50.958;6.258;2023-02-28T11:26:35;4.78;;;2.00;;
46897;SDS011;32646;50.958;6.258;2023-02-28T11:29:11;4.15;;;1.83;;
46897;SDS011;32646;50.958;6.258;2023-02-28T11:31:43;4.07;;;1.90;;
46897;SDS011;32646;50.958;6.258;2023-02-28T11:34:25;4.95;;;1.90;;
46897;SDS011;32646;50.958;6.258;2023-02-28T11:36:54;4.13;;;2.15;;
46897;SDS011;32646;50.958;6.258;2023-02-28T11:39:21;3.53;;;1.88;;
46897;SDS011;32646;50.958;6.258;2023-02-28T11:44:43;4.68;;;2.08;;
46897;SDS011;32646;50.958;6.258;2023-02-28T11:47:33;4.35;;;1.95;;
46897;SDS011;32646;50.958;6.258;2023-02-28T11:50:15;4.03;;;1.90;;
46897;SDS011;32646;50.958;6.258;2023-02-28T11:55:49;3.65;;;1.73;;
46897;SDS011;32646;50.958;6.258;2023-02-28T12:01:23;4.32;;;2.08;;
46897;SDS011;32646;50.958;6.258;2023-02-28T12:06:57;4.55;;;1.92;;
46897;SDS011;32646;50.958;6.258;2023-02-28T12:09:33;6.80;;;2.30;;
46897;SDS011;32646;50.958;6.258;2023-02-28T12:20:54;5.20;;;2.30;;
46897;SDS011;32646;50.958;6.258;2023-02-28T12:23:43;4.25;;;2.65;;
46897;SDS011;32646;50.958;6.258;2023-02-28T12:26:19;6.07;;;2.70;;
46897;SDS011;32646;50.958;6.258;2023-02-28T12:28:59;5.35;;;2.25;;
46897;SDS011;32646;50.958;6.258;2023-02-28T12:31:33;6.45;;;2.78;;
46897;SDS011;32646;50.958;6.258;2023-02-28T12:34:21;4.70;;;2.53;;
46897;SDS011;32646;50.958;6.258;2023-02-28T12:36:53;4.47;;;2.25;;
46897;SDS011;32646;50.958;6.258;2023-02-28T12:39:38;4.70;;;2.30;;
46897;SDS011;32646;50.958;6.258;2023-02-28T12:45:24;4.88;;;2.22;;
46897;SDS011;32646;50.958;6.258;2023-02-28T12:47:59;3.92;;;2.22;;
46897;SDS011;32646;50.958;6.258;2023-02-28T12:50:29;5.28;;;2.13;;
46897;SDS011;32646;50.958;6.258;2023-02-28T12:52:58;7.15;;;1.85;;
46897;SDS011;32646;50.958;6.258;2023-02-28T12:55:42;3.90;;;2.05;;
46897;SDS011;32646;50.958;6.258;2023-02-28T12:58:33;5.30;;;2.30;;
46897;SDS011;32646;50.958;6.258;2023-02-28T13:11:40;4.55;;;2.25;;
46897;SDS011;32646;50.958;6.258;2023-02-28T13:19:39;5.95;;;2.60;;
46897;SDS011;32646;50.958;6.258;2023-02-28T13:28:11;3.38;;;1.85;;
46897;SDS011;32646;50.958;6.258;2023-02-28T13:31:00;4.38;;;2.45;;
46897;SDS011;32646;50.958;6.258;2023-02-28T13:33:35;4.72;;;2.78;;
46897;SDS011;32646;50.958;6.258;2023-02-28T13:38:45;5.18;;;2.40;;
46897;SDS011;32646;50.958;6.258;2023-02-28T13:51:52;4.22;;;2.38;;
46897;SDS011;32646;50.958;6.258;2023-02-28T14:00:44;4.40;;;2.15;;
46897;SDS011;32646;50.958;6.258;2023-02-28T14:03:25;4.20;;;2.50;;
46897;SDS011;32646;50.958;6.258;2023-02-28T14:06:13;4.38;;;2.30;;
46897;SDS011;32646;50.958;6.258;2023-02-28T14:08:49;12.52;;;6.88;;
46897;SDS011;32646;50.958;6.258;2023-02-28T14:11:30;15.70;;;5.30;;
46897;SDS011;32646;50.958;6.258;2023-02-28T14:14:06;10.48;;;5.82;;
46897;SDS011;32646;50.958;6.258;2023-02-28T14:16:39;4.78;;;2.17;;
46897;SDS011;32646;50.958;6.258;2023-02-28T14:19:14;17.33;;;9.57;;
46897;SDS011;32646;50.958;6.258;2023-02-28T14:21:49;8.18;;;2.90;;
46897;SDS011;32646;50.958;6.258;2023-02-28T14:35:18;4.85;;;2.30;;
46897;SDS011;32646;50.958;6.258;2023-02-28T14:37:55;3.92;;;2.17;;
46897;SDS011;32646;50.958;6.258;2023-02-28T14:40:27;5.50;;;2.53;;
46897;SDS011;32646;50.958;6.258;2023-02-28T14:42:58;4.82;;;2.75;;
46897;SDS011;32646;50.958;6.258;2023-02-28T14:45:27;5.60;;;2.33;;
46897;SDS011;32646;50.958;6.258;2023-02-28T14:47:56;5.85;;;2.55;;
46897;SDS011;32646;50.958;6.258;2023-02-28T14:50:31;5.80;;;2.70;;
46897;SDS011;32646;50.958;6.258;2023-02-28T14:55:28;4.50;;;2.33;;
46897;SDS011;32646;50.958;6.258;2023-02-28T14:57:58;4.75;;;2.47;;
46897;SDS011;32646;50.958;6.258;2023-02-28T15:00:27;4.47;;;2.58;;
46897;SDS011;32646;50.958;6.258;2023-02-28T15:02:56;5.57;;;2.63;;
46897;SDS011;32646;50.958;6.258;2023-02-28T15:05:31;3.90;;;2.28;;
46897;SDS011;32646;50.958;6.258;2023-02-28T15:10:28;5.68;;;2.50;;
46897;SDS011;32646;50.958;6.258;2023-02-28T15:12:56;5.28;;;2.40;;
46897;SDS011;32646;50.958;6.258;2023-02-28T15:21:18;4.65;;;2.15;;
46897;SDS011;32646;50.958;6.258;2023-02-28T15:23:54;5.05;;;2.50;;
46897;SDS011;32646;50.958;6.258;2023-02-28T15:26:26;4.72;;;2.38;;
46897;SDS011;32646;50.958;6.258;2023-02-28T15:28:58;4.63;;;2.42;;
46897;SDS011;32646;50.958;6.258;2023-02-28T15:31:40;5.40;;;2.90;;
46897;SDS011;32646;50.958;6.258;2023-02-28T15:34:34;4.70;;;2.58;;
46897;SDS011;32646;50.958;6.258;2023-02-28T15:40:11;4.88;;;2.53;;
46897;SDS011;32646;50.958;6.258;2023-02-28T15:42:58;4.07;;;1.88;;
46897;SDS011;32646;50.958;6.258;2023-02-28T15:45:28;5.25;;;2.70;;
46897;SDS011;32646;50.958;6.258;2023-02-28T15:50:57;4.78;;;1.80;;
46897;SDS011;32646;50.958;6.258;2023-02-28T15:56:13;5.25;;;2.03;;
46897;SDS011;32646;50.958;6.258;2023-02-28T15:58:56;5.65;;;2.45;;
46897;SDS011;32646;50.958;6.258;2023-02-28T16:01:25;5.32;;;2.05;;
46897;SDS011;32646;50.958;6.258;2023-02-28T16:03:54;4.38;;;2.00;;
46897;SDS011;32646;50.958;6.258;2023-02-28T16:09:02;5.78;;;3.25;;
46897;SDS011;32646;50.958;6.258;2023-02-28T16:11:37;14.02;;;5.82;;
46897;SDS011;32646;50.958;6.258;2023-02-28T16:14:06;4.80;;;2.80;;
46897;SDS011;32646;50.958;6.258;2023-02-28T16:16:41;5.22;;;3.20;;
46897;SDS011;32646;50.958;6.258;2023-02-28T16:19:09;5.88;;;3.63;;
46897;SDS011;32646;50.958;6.258;2023-02-28T16:21:35;5.80;;;2.70;;
46897;SDS011;32646;50.958;6.258;2023-02-28T16:24:02;6.65;;;2.67;;
46897;SDS011;32646;50.958;6.258;2023-02-28T16:26:28;5.82;;;2.83;;
46897;SDS011;32646;50.958;6.258;2023-02-28T16:28:55;5.30;;;2.70;;
46897;SDS011;32646;50.958;6.258;2023-02-28T16:31:22;5.47;;;2.92;;
46897;SDS011;32646;50.958;6.258;2023-02-28T16:33:48;6.32;;;3.58;;
46897;SDS011;32646;50.958;6.258;2023-02-28T16:36:16;4.93;;;2.70;;
46897;SDS011;32646;50.958;6.258;2023-02-28T16:38:45;4.38;;;2.53;;
46897;SDS011;32646;50.958;6.258;2023-02-28T16:41:12;5.50;;;2.58;;
46897;SDS011;32646;50.958;6.258;2023-02-28T16:43:47;5.40;;;2.92;;
46897;SDS011;32646;50.958;6.258;2023-02-28T16:46:15;5.28;;;3.03;;
46897;SDS011;32646;50.958;6.258;2023-02-28T16:48:43;5.80;;;3.65;;
46897;SDS011;32646;50.958;6.258;2023-02-28T16:51:13;6.10;;;3.25;;
46897;SDS011;32646;50.958;6.258;2023-02-28T16:53:41;5.07;;;3.03;;
46897;SDS011;32646;50.958;6.258;2023-02-28T16:56:16;5.43;;;2.70;;
46897;SDS011;32646;50.958;6.258;2023-02-28T16:58:45;7.82;;;2.83;;
46897;SDS011;32646;50.958;6.258;2023-02-28T17:01:13;5.65;;;2.90;;
46897;SDS011;32646;50.958;6.258;2023-02-28T17:03:41;6.38;;;2.80;;
46897;SDS011;32646;50.958;6.258;2023-02-28T17:06:15;5.70;;;2.78;;
46897;SDS011;32646;50.958;6.258;2023-02-28T17:08:49;5.03;;;2.97;;
46897;SDS011;32646;50.958;6.258;2023-02-28T17:11:17;8.93;;;3.15;;
46897;SDS011;32646;50.958;6.258;2023-02-28T17:13:44;5.22;;;3.20;;
46897;SDS011;32646;50.958;6.258;2023-02-28T17:16:17;9.35;;;5.82;;
46897;SDS011;32646;50.958;6.258;2023-02-28T17:18:46;6.72;;;3.28;;
46897;SDS011;32646;50.958;6.258;2023-02-28T17:21:14;7.60;;;5.13;;
46897;SDS011;32646;50.958;6.258;2023-02-28T17:23:41;9.95;;;4.18;;
46897;SDS011;32646;50.958;6.258;2023-02-28T17:26:11;8.57;;;5.32;;
46897;SDS011;32646;50.958;6.258;2023-02-28T17:28:39;6.43;;;3.58;;
46897;SDS011;32646;50.958;6.258;2023-02-28T17:31:07;7.07;;;3.90;;
46897;SDS011;32646;50.958;6.258;2023-02-28T17:33:33;6.20;;;3.38;;
46897;SDS011;32646;50.958;6.258;2023-02-28T17:36:00;5.88;;;3.67;;